Stouchsburg, Pennsylvania
Current Conditions -  °F | °C
As of 3:54 PM on Thursday 23 Oct 2014 (Local Time) from KRDG Reporting Station
Overcast Overcast  
Wind Chill: 55°   Ceiling: 2700
Heat Index: 55°   Visibility: 10mi
Dew Point: 44°   Wind: 17mph
Humidity: 67%   Direction: 340°NNW
Pressure: 29.82"   Gusts: 23mph
Location:  40.3905°N, 76.2083°W
Report Text: KRDG 231954Z AUTO 34015G20KT 10SM OVC027 13/07 A2982 RMK AO2 SLP101 T01280067
Loading
Personal Weather Stations






























Interactive Weather Map
Tropical Storm Tracking
New forecast layout! Learn more

10-Day Weather Forecast

Advertisements
Track Severe Weather on mobile